Time;durP1;ratioP1;P1;durP2;ratioP2;P2;SDS_P1;SDS_P2;PMS_P1;PMS_P2;Temp;Humidity;BMP_temperature;BMP_pressure;BME280_temperature;BME280_humidity;BME280_pressure;Samples;Min_cycle;Max_cycle;Signal;HPM_P1;HPM_P2
2021/05/01 00:00:09;;;;;;;55.50;2.10;;;6.90;89.60;;;;;;5091965;28;20251;-68
2021/05/01 00:02:35;;;;;;;55.42;2.15;;;6.90;89.70;;;;;;5091528;28;20742;-68
2021/05/01 00:05:01;;;;;;;55.60;2.20;;;7.00;89.90;;;;;;5091462;28;20227;-68
2021/05/01 00:07:27;;;;;;;55.50;2.17;;;6.90;90.00;;;;;;5092047;28;20240;-68
2021/05/01 00:09:54;;;;;;;55.60;2.33;;;7.00;90.10;;;;;;5091638;28;20221;-69
2021/05/01 00:12:21;;;;;;;55.37;2.10;;;7.00;90.10;;;;;;5091440;28;20231;-68
2021/05/01 00:14:47;;;;;;;55.55;2.00;;;7.00;90.20;;;;;;5091666;28;20446;-68
2021/05/01 00:17:14;;;;;;;55.47;2.00;;;7.00;90.30;;;;;;5087997;28;20565;-68
2021/05/01 00:19:40;;;;;;;56.08;3.67;;;7.00;90.40;;;;;;5091478;28;20311;-68
2021/05/01 00:22:06;;;;;;;56.17;3.20;;;7.00;90.40;;;;;;5091406;28;20254;-68
2021/05/01 00:24:33;;;;;;;55.50;1.90;;;7.00;90.50;;;;;;5091192;28;20316;-68
2021/05/01 00:26:59;;;;;;;55.50;2.00;;;7.00;90.60;;;;;;5091937;28;20296;-68
2021/05/01 00:29:26;;;;;;;55.38;2.10;;;7.00;90.60;;;;;;5091600;28;20247;-68
2021/05/01 00:31:53;;;;;;;55.50;2.30;;;7.00;90.70;;;;;;5091197;28;20291;-68
2021/05/01 00:34:19;;;;;;;55.55;2.00;;;7.00;90.80;;;;;;5091282;28;20257;-68
2021/05/01 00:36:45;;;;;;;55.58;2.10;;;7.00;90.80;;;;;;5091382;28;20210;-68
2021/05/01 00:39:12;;;;;;;55.60;1.80;;;7.00;90.90;;;;;;5091403;28;20799;-69
2021/05/01 00:41:38;;;;;;;55.40;2.00;;;7.00;90.90;;;;;;5091535;28;20315;-69
2021/05/01 00:44:06;;;;;;;55.58;2.03;;;7.00;90.90;;;;;;5090916;28;20306;-68
2021/05/01 00:46:33;;;;;;;55.50;1.90;;;7.00;90.90;;;;;;5091278;28;20308;-68
2021/05/01 00:48:59;;;;;;;55.45;1.85;;;7.00;90.90;;;;;;5073004;28;20304;-68
2021/05/01 00:51:26;;;;;;;55.50;1.90;;;6.90;90.90;;;;;;5070764;28;20330;-68
2021/05/01 00:53:52;;;;;;;55.70;2.30;;;6.90;90.90;;;;;;5070750;28;20300;-68
2021/05/01 00:56:18;;;;;;;55.67;2.15;;;6.90;90.90;;;;;;5071110;28;20241;-68
2021/05/01 00:58:45;;;;;;;55.50;2.05;;;6.90;90.90;;;;;;5071062;28;20303;-68
2021/05/01 01:01:18;;;;;;;55.60;2.00;;;6.90;91.00;;;;;;5071098;28;20324;-68
2021/05/01 01:03:47;;;;;;;55.78;2.10;;;6.90;91.00;;;;;;5070431;28;20212;-68
2021/05/01 01:06:14;;;;;;;55.58;2.20;;;6.80;91.00;;;;;;5070857;28;20208;-68
2021/05/01 01:08:41;;;;;;;55.70;2.20;;;6.80;91.10;;;;;;5075148;28;20244;-68
2021/05/01 01:11:08;;;;;;;55.67;2.10;;;6.70;91.00;;;;;;5074986;28;20229;-68
2021/05/01 01:13:35;;;;;;;56.00;3.38;;;6.70;91.00;;;;;;5074399;28;20240;-68
2021/05/01 01:16:02;;;;;;;55.88;2.40;;;6.70;91.00;;;;;;5074617;28;20293;-68
2021/05/01 01:18:28;;;;;;;55.70;2.25;;;6.70;91.00;;;;;;5071727;28;20244;-69
2021/05/01 01:20:58;;;;;;;55.83;2.75;;;6.60;91.00;;;;;;5078244;28;20301;-68
2021/05/01 01:23:25;;;;;;;55.47;1.90;;;6.70;91.10;;;;;;5094726;28;20294;-68
2021/05/01 01:25:52;;;;;;;55.88;2.40;;;6.60;91.10;;;;;;5094779;28;20261;-68
2021/05/01 01:28:19;;;;;;;55.58;2.10;;;6.60;91.30;;;;;;5094695;28;20204;-68
2021/05/01 01:30:45;;;;;;;55.50;1.98;;;6.60;91.20;;;;;;5094781;28;20262;-68
2021/05/01 01:33:12;;;;;;;55.70;2.20;;;6.60;91.30;;;;;;5094472;28;20239;-68
2021/05/01 01:35:39;;;;;;;56.17;2.95;;;6.60;91.40;;;;;;5094653;28;20257;-68
2021/05/01 01:38:07;;;;;;;55.90;2.78;;;6.70;91.50;;;;;;5094490;28;20243;-69
2021/05/01 01:40:37;;;;;;;55.70;2.50;;;6.60;91.60;;;;;;5094822;28;20311;-68
2021/05/01 01:43:04;;;;;;;55.47;2.10;;;6.60;91.60;;;;;;5094269;28;20246;-68
2021/05/01 01:45:30;;;;;;;55.53;2.00;;;6.70;91.70;;;;;;5094228;28;20223;-68
2021/05/01 01:47:57;;;;;;;55.50;1.98;;;6.70;91.80;;;;;;5094186;28;20208;-68
2021/05/01 01:50:25;;;;;;;55.60;2.10;;;6.60;91.80;;;;;;5093739;28;20314;-68
2021/05/01 01:52:52;;;;;;;55.65;2.28;;;6.60;91.80;;;;;;5093808;28;20622;-68
2021/05/01 01:55:19;;;;;;;55.50;2.08;;;6.60;99.90;;;;;;5093786;28;20214;-68
2021/05/01 01:57:47;;;;;;;55.30;2.00;;;6.70;99.90;;;;;;5094397;28;20345;-68
2021/05/01 02:00:17;;;;;;;55.47;2.00;;;6.60;99.90;;;;;;5094307;28;20232;-68
2021/05/01 02:02:43;;;;;;;55.28;2.20;;;6.60;99.90;;;;;;5094231;28;20207;-68
2021/05/01 02:05:11;;;;;;;55.75;2.20;;;6.60;99.90;;;;;;5093972;28;20315;-68
2021/05/01 02:07:38;;;;;;;55.60;2.40;;;6.50;99.90;;;;;;5094314;28;20680;-68
2021/05/01 02:10:06;;;;;;;55.78;2.20;;;6.50;99.90;;;;;;5094220;28;20281;-68
2021/05/01 02:12:37;;;;;;;55.75;2.15;;;6.50;99.90;;;;;;5093779;28;20241;-68
2021/05/01 02:15:09;;;;;;;55.50;2.10;;;6.40;99.90;;;;;;5094331;28;20205;-68
2021/05/01 02:17:36;;;;;;;55.50;2.17;;;6.40;99.90;;;;;;5093752;28;20205;-68
2021/05/01 02:20:04;;;;;;;55.47;2.13;;;6.40;99.90;;;;;;5092930;28;20221;-68
2021/05/01 02:22:30;;;;;;;55.63;2.30;;;6.40;99.90;;;;;;5093544;28;20246;-68
2021/05/01 02:24:57;;;;;;;55.60;2.13;;;6.30;99.90;;;;;;5093749;28;20333;-68
2021/05/01 02:27:23;;;;;;;55.70;2.10;;;6.30;99.90;;;;;;5093809;28;20247;-68
2021/05/01 02:29:49;;;;;;;55.60;2.10;;;6.20;99.90;;;;;;5093756;28;20312;-68
2021/05/01 02:32:17;;;;;;;55.78;2.17;;;6.20;99.90;;;;;;5093395;28;20579;-68
2021/05/01 02:34:43;;;;;;;55.78;2.17;;;6.20;99.90;;;;;;5093851;28;20633;-68
2021/05/01 02:37:10;;;;;;;55.53;2.10;;;6.20;99.90;;;;;;5093820;28;20616;-68
2021/05/01 02:39:36;;;;;;;55.85;2.25;;;6.20;99.90;;;;;;5093620;28;20223;-68
2021/05/01 02:42:03;;;;;;;55.63;2.42;;;6.10;99.90;;;;;;5093100;28;20665;-68
2021/05/01 02:44:29;;;;;;;55.70;2.30;;;6.10;99.90;;;;;;5093478;28;20319;-68
2021/05/01 02:46:56;;;;;;;55.80;2.30;;;6.10;99.90;;;;;;5093471;28;20211;-68
2021/05/01 02:49:23;;;;;;;55.60;2.15;;;6.10;99.90;;;;;;5093487;28;20295;-68
2021/05/01 02:51:49;;;;;;;55.88;2.20;;;6.00;99.90;;;;;;5093181;28;20296;-69
2021/05/01 02:54:16;;;;;;;55.67;2.22;;;6.00;99.90;;;;;;5093247;28;20286;-68
2021/05/01 02:56:42;;;;;;;55.58;2.28;;;6.00;99.90;;;;;;5093127;28;20298;-68
2021/05/01 02:59:08;;;;;;;55.50;2.20;;;5.90;99.90;;;;;;5093343;28;20236;-68
2021/05/01 03:01:35;;;;;;;55.55;2.40;;;5.90;99.90;;;;;;5093046;28;20220;-68
2021/05/01 03:04:01;;;;;;;55.70;2.22;;;5.90;99.90;;;;;;5092578;28;20291;-68
2021/05/01 03:06:28;;;;;;;55.60;2.10;;;5.80;99.90;;;;;;5093177;28;20704;-68
2021/05/01 03:08:55;;;;;;;55.67;2.20;;;5.80;99.90;;;;;;5093069;28;20375;-68
2021/05/01 03:11:21;;;;;;;55.58;2.00;;;5.80;99.90;;;;;;5092980;28;20311;-68
2021/05/01 03:13:47;;;;;;;55.70;2.10;;;5.70;99.90;;;;;;5092462;28;20301;-68
2021/05/01 03:16:14;;;;;;;55.70;2.15;;;5.70;99.90;;;;;;5093048;28;20228;-68
2021/05/01 03:18:40;;;;;;;55.70;2.13;;;5.70;99.90;;;;;;5092959;28;20646;-68
2021/05/01 03:21:06;;;;;;;55.72;2.17;;;5.70;99.90;;;;;;5093241;28;20813;-68
2021/05/01 03:23:34;;;;;;;55.70;2.22;;;5.60;99.90;;;;;;5092365;28;20287;-68
2021/05/01 03:26:00;;;;;;;55.58;2.17;;;5.60;99.90;;;;;;5093056;28;20263;-68
2021/05/01 03:28:26;;;;;;;55.65;2.17;;;5.50;99.90;;;;;;5093046;28;20721;-68
2021/05/01 03:30:52;;;;;;;55.55;2.00;;;5.50;99.90;;;;;;5092549;28;20234;-68
2021/05/01 03:33:20;;;;;;;55.67;2.30;;;5.40;99.90;;;;;;5092445;28;20291;-68
2021/05/01 03:35:47;;;;;;;55.67;2.20;;;5.40;99.90;;;;;;5092419;28;20291;-68
2021/05/01 03:38:13;;;;;;;55.80;2.28;;;5.30;99.90;;;;;;5092507;28;20663;-68
2021/05/01 03:40:40;;;;;;;55.80;2.40;;;5.30;99.90;;;;;;5092593;28;20266;-68
2021/05/01 03:43:09;;;;;;;55.58;2.30;;;5.30;99.90;;;;;;5092064;28;20747;-68
2021/05/01 03:45:36;;;;;;;56.05;2.53;;;5.30;99.90;;;;;;5092220;28;20224;-68
2021/05/01 03:48:02;;;;;;;55.80;2.38;;;5.20;99.90;;;;;;5092446;28;20204;-68
2021/05/01 03:50:29;;;;;;;55.47;2.25;;;5.20;99.90;;;;;;5092090;28;20251;-68
2021/05/01 03:52:55;;;;;;;55.67;2.28;;;5.20;99.90;;;;;;5091777;28;20291;-68
2021/05/01 03:55:22;;;;;;;55.58;2.00;;;5.20;99.90;;;;;;5092186;28;20208;-68
2021/05/01 03:57:49;;;;;;;55.17;2.10;;;5.20;99.90;;;;;;5092464;28;20239;-68
2021/05/01 04:00:16;;;;;;;55.80;2.03;;;5.20;99.90;;;;;;5092293;28;20219;-68
2021/05/01 04:02:42;;;;;;;55.47;2.10;;;5.20;99.90;;;;;;5091851;28;20204;-68
2021/05/01 04:05:10;;;;;;;55.70;2.10;;;5.20;99.90;;;;;;5091753;28;20320;-68
2021/05/01 04:07:37;;;;;;;55.58;2.20;;;5.20;99.90;;;;;;5092047;28;20303;-68
2021/05/01 04:10:04;;;;;;;55.67;2.00;;;5.20;99.90;;;;;;5091822;28;20252;-68
2021/05/01 04:12:30;;;;;;;55.70;2.10;;;5.20;99.90;;;;;;5091739;28;20291;-68
2021/05/01 04:14:57;;;;;;;55.80;2.10;;;5.20;99.90;;;;;;5091770;28;20269;-68
2021/05/01 04:17:24;;;;;;;56.08;3.08;;;5.20;99.90;;;;;;5092074;28;20240;-68
2021/05/01 04:19:50;;;;;;;55.78;2.28;;;5.20;99.90;;;;;;5091711;28;20310;-68
2021/05/01 04:22:17;;;;;;;55.70;2.17;;;5.20;99.90;;;;;;5091831;28;20311;-68
2021/05/01 04:24:43;;;;;;;55.70;2.20;;;5.20;99.90;;;;;;5091759;28;20358;-68
2021/05/01 04:27:10;;;;;;;55.70;2.05;;;5.20;99.90;;;;;;5091699;28;20231;-68
2021/05/01 04:29:36;;;;;;;55.65;2.10;;;5.20;99.90;;;;;;5091689;28;20240;-68
2021/05/01 04:32:03;;;;;;;55.47;2.20;;;5.30;99.90;;;;;;5091979;28;20290;-68
2021/05/01 04:34:30;;;;;;;55.63;2.20;;;5.30;99.90;;;;;;5091518;28;20200;-68
2021/05/01 04:36:56;;;;;;;55.38;2.13;;;5.30;99.90;;;;;;5091892;28;20208;-68
2021/05/01 04:39:22;;;;;;;55.80;2.15;;;5.40;99.90;;;;;;5091666;28;20231;-68
2021/05/01 04:41:49;;;;;;;55.67;2.15;;;5.40;99.90;;;;;;5093231;28;20290;-68
2021/05/01 04:44:16;;;;;;;55.63;2.15;;;5.50;99.90;;;;;;5095684;28;20200;-68
2021/05/01 04:46:42;;;;;;;55.80;2.15;;;5.50;99.90;;;;;;5095894;28;20215;-68
2021/05/01 04:49:09;;;;;;;55.75;2.10;;;5.50;99.90;;;;;;5095632;28;20295;-68
2021/05/01 04:51:36;;;;;;;56.08;2.60;;;5.60;99.90;;;;;;5095653;28;20318;-68
2021/05/01 04:54:03;;;;;;;55.47;2.20;;;5.60;99.90;;;;;;5095354;28;20235;-68
2021/05/01 04:56:29;;;;;;;55.67;2.15;;;5.60;99.90;;;;;;5095794;28;20360;-68
2021/05/01 04:58:56;;;;;;;55.58;2.15;;;5.70;99.90;;;;;;5095510;28;20744;-68
2021/05/01 05:01:22;;;;;;;55.67;2.10;;;5.70;99.90;;;;;;5095584;28;20746;-68
2021/05/01 05:03:49;;;;;;;55.58;2.20;;;5.70;99.90;;;;;;5094968;28;20759;-68
2021/05/01 05:06:17;;;;;;;55.85;2.10;;;5.80;99.90;;;;;;5095423;28;20289;-68
2021/05/01 05:08:43;;;;;;;55.60;2.10;;;5.90;99.90;;;;;;5095586;28;20288;-68
2021/05/01 05:11:09;;;;;;;55.58;2.20;;;5.90;99.90;;;;;;5095386;28;20311;-68
2021/05/01 05:13:36;;;;;;;55.63;1.90;;;6.00;99.90;;;;;;5094817;28;20724;-68
2021/05/01 05:16:02;;;;;;;55.60;2.50;;;6.10;99.90;;;;;;5095252;28;20260;-68
2021/05/01 05:18:28;;;;;;;55.55;2.20;;;6.20;99.90;;;;;;5095286;28;20248;-68
2021/05/01 05:20:55;;;;;;;55.80;2.22;;;6.20;99.90;;;;;;5095079;28;20256;-68
2021/05/01 05:23:22;;;;;;;55.78;2.08;;;6.40;99.90;;;;;;5094733;28;20739;-68
2021/05/01 05:25:49;;;;;;;55.47;2.60;;;6.40;99.90;;;;;;5094876;28;20673;-68
2021/05/01 05:28:15;;;;;;;55.72;2.20;;;6.50;99.90;;;;;;5095140;28;20209;-68
2021/05/01 05:30:42;;;;;;;55.70;2.33;;;6.50;99.90;;;;;;5095484;28;20228;-68
2021/05/01 05:33:08;;;;;;;55.70;2.20;;;6.50;99.90;;;;;;5094919;28;20291;-68
2021/05/01 05:35:34;;;;;;;55.53;2.40;;;6.60;99.90;;;;;;5094670;28;20484;-68
2021/05/01 05:38:01;;;;;;;55.60;2.10;;;6.70;99.90;;;;;;5095056;28;20294;-68
2021/05/01 05:40:28;;;;;;;55.47;2.22;;;6.70;99.90;;;;;;5094754;28;20228;-68
2021/05/01 05:42:55;;;;;;;55.47;2.00;;;6.80;99.90;;;;;;5094542;28;20219;-68
2021/05/01 05:45:24;;;;;;;55.38;2.00;;;6.90;99.90;;;;;;5094350;28;20264;-68
2021/05/01 05:47:51;;;;;;;55.60;2.08;;;7.10;99.90;;;;;;5094901;28;20216;-68
2021/05/01 05:50:17;;;;;;;55.45;2.08;;;7.20;99.90;;;;;;5094466;28;20788;-68
2021/05/01 05:52:44;;;;;;;55.55;1.98;;;7.40;99.90;;;;;;5094038;28;20621;-68
2021/05/01 05:55:12;;;;;;;55.55;2.10;;;7.60;99.90;;;;;;5094373;28;20293;-68
2021/05/01 05:57:41;;;;;;;55.55;2.05;;;7.70;99.90;;;;;;5094499;28;20216;-68
2021/05/01 06:00:08;;;;;;;55.78;2.22;;;7.80;99.90;;;;;;5094157;28;20417;-68
2021/05/01 06:02:35;;;;;;;55.60;2.13;;;7.90;99.90;;;;;;5094230;28;20291;-68
2021/05/01 06:05:04;;;;;;;55.70;2.10;;;8.10;99.90;;;;;;5094212;28;20359;-68
2021/05/01 06:07:34;;;;;;;55.60;2.13;;;8.10;99.90;;;;;;5094205;28;20580;-68
2021/05/01 06:10:04;;;;;;;55.47;2.17;;;8.30;99.90;;;;;;5094072;28;20259;-68
2021/05/01 06:12:32;;;;;;;55.50;2.17;;;8.40;99.90;;;;;;5093777;28;20535;-68
2021/05/01 06:15:04;;;;;;;55.47;2.17;;;8.50;99.90;;;;;;5093892;28;20715;-68
2021/05/01 06:17:30;;;;;;;55.47;2.30;;;8.40;99.90;;;;;;5094289;28;20448;-68
2021/05/01 06:19:58;;;;;;;55.60;2.03;;;8.40;99.90;;;;;;5094002;28;20559;-68
2021/05/01 06:22:25;;;;;;;56.73;3.50;;;8.40;99.90;;;;;;5093774;28;20440;-68
2021/05/01 06:24:52;;;;;;;55.47;2.07;;;8.50;99.90;;;;;;5093701;28;20481;-68
2021/05/01 06:27:19;;;;;;;55.37;2.10;;;8.50;99.90;;;;;;5093999;28;20538;-68
2021/05/01 06:29:46;;;;;;;55.78;2.20;;;8.60;99.90;;;;;;5092567;28;20478;-68
2021/05/01 06:32:15;;;;;;;55.60;2.23;;;8.60;99.90;;;;;;5093526;28;20682;-68
2021/05/01 06:34:45;;;;;;;64.13;3.60;;;8.70;99.90;;;;;;5093748;28;20447;-68
2021/05/01 06:37:15;;;;;;;55.53;2.27;;;8.80;99.90;;;;;;5093762;28;20483;-68
2021/05/01 06:39:42;;;;;;;55.57;2.23;;;8.90;99.90;;;;;;5093307;28;20476;-68
2021/05/01 06:42:12;;;;;;;55.60;2.30;;;9.10;99.90;;;;;;5093273;28;20454;-68
2021/05/01 06:44:43;;;;;;;55.57;2.30;;;9.10;99.90;;;;;;5093602;28;20487;-68
2021/05/01 06:47:11;;;;;;;55.87;3.70;;;9.10;99.90;;;;;;5093546;28;20456;-68
2021/05/01 06:49:48;;;;;;;55.90;3.37;;;9.20;99.90;;;;;;5093570;28;20451;-68
2021/05/01 06:52:16;;;;;;;55.67;2.17;;;9.30;99.90;;;;;;5093163;28;20523;-68
2021/05/01 06:54:45;;;;;;;57.03;3.83;;;9.40;99.90;;;;;;5093614;28;20453;-68
2021/05/01 06:57:12;;;;;;;55.80;2.20;;;9.40;99.90;;;;;;5093768;28;20453;-68
2021/05/01 06:59:41;;;;;;;55.87;2.50;;;9.40;99.90;;;;;;5093487;28;20473;-68
2021/05/01 07:02:08;;;;;;;55.73;2.07;;;9.40;99.90;;;;;;5093076;28;20455;-68
2021/05/01 07:04:36;;;;;;;56.37;3.43;;;9.40;99.90;;;;;;5092393;28;20791;-67
2021/05/01 07:07:05;;;;;;;55.77;2.10;;;9.30;99.90;;;;;;5093330;28;20444;-67
2021/05/01 07:09:32;;;;;;;55.67;2.10;;;9.30;99.90;;;;;;5093029;28;20444;-67
2021/05/01 07:12:00;;;;;;;55.67;2.00;;;9.40;99.90;;;;;;5092864;28;20447;-67
2021/05/01 07:14:27;;;;;;;55.37;2.03;;;9.50;99.90;;;;;;5092787;28;20460;-67
2021/05/01 07:16:54;;;;;;;55.60;2.00;;;9.60;99.90;;;;;;5092987;28;20871;-67
2021/05/01 07:19:21;;;;;;;55.33;2.20;;;9.70;99.90;;;;;;5093181;28;20531;-67
2021/05/01 07:21:47;;;;;;;55.50;1.90;;;9.80;99.90;;;;;;5093192;28;20490;-67
2021/05/01 07:24:15;;;;;;;55.77;2.20;;;9.90;99.90;;;;;;5092362;28;20474;-67
2021/05/01 07:26:42;;;;;;;55.80;2.40;;;10.00;99.90;;;;;;5092718;28;20487;-67
2021/05/01 07:29:09;;;;;;;55.80;3.07;;;10.10;99.90;;;;;;5092703;28;21037;-67
2021/05/01 07:31:40;;;;;;;55.50;2.30;;;10.20;99.90;;;;;;5092814;28;20472;-67
2021/05/01 07:34:13;;;;;;;55.90;2.50;;;10.20;99.90;;;;;;5092495;28;20469;-67
2021/05/01 07:36:43;;;;;;;55.57;2.40;;;10.20;99.90;;;;;;5092679;28;20547;-67
2021/05/01 07:39:11;;;;;;;55.67;2.20;;;10.30;99.90;;;;;;5092836;28;20594;-67
2021/05/01 07:41:42;;;;;;;55.57;2.30;;;10.30;99.90;;;;;;5092645;28;20473;-67
2021/05/01 07:44:09;;;;;;;55.67;2.13;;;10.20;99.90;;;;;;5092037;28;20457;-66
2021/05/01 07:46:39;;;;;;;55.67;2.77;;;10.20;99.90;;;;;;5092543;28;20491;-67
2021/05/01 07:49:06;;;;;;;55.50;2.07;;;10.10;99.90;;;;;;5092544;28;20459;-67
2021/05/01 07:51:35;;;;;;;55.77;2.20;;;10.10;99.90;;;;;;5092182;28;20559;-67
2021/05/01 07:54:01;;;;;;;55.17;2.10;;;10.00;99.90;;;;;;5092015;28;20943;-67
2021/05/01 07:56:28;;;;;;;55.60;2.17;;;9.90;99.90;;;;;;5092349;28;21000;-67
2021/05/01 07:58:56;;;;;;;55.43;2.13;;;9.90;99.90;;;;;;5092081;28;20586;-67
2021/05/01 08:01:22;;;;;;;55.83;2.20;;;9.90;99.90;;;;;;5092465;28;20504;-67
2021/05/01 08:03:49;;;;;;;55.80;2.10;;;9.90;99.90;;;;;;5091891;28;20542;-67
2021/05/01 08:06:17;;;;;;;55.50;2.10;;;10.00;99.90;;;;;;5092158;28;20488;-67
2021/05/01 08:08:44;;;;;;;55.73;2.30;;;10.20;99.90;;;;;;5092270;28;20450;-67
2021/05/01 08:11:10;;;;;;;55.87;2.00;;;10.30;99.90;;;;;;5092135;28;20942;-67
2021/05/01 08:13:36;;;;;;;55.83;2.13;;;10.40;99.90;;;;;;5091807;28;20950;-67
2021/05/01 08:16:04;;;;;;;55.80;2.20;;;10.50;99.90;;;;;;5092233;28;20496;-67
2021/05/01 08:18:30;;;;;;;55.40;2.07;;;10.50;99.90;;;;;;5092100;28;20529;-67
2021/05/01 08:20:57;;;;;;;55.80;2.20;;;10.40;99.90;;;;;;5091861;28;20530;-67
2021/05/01 08:23:23;;;;;;;55.57;2.20;;;10.30;99.90;;;;;;5091694;28;20533;-67
2021/05/01 08:25:50;;;;;;;55.90;2.20;;;10.20;99.90;;;;;;5091601;28;20557;-67
2021/05/01 08:28:16;;;;;;;55.60;2.17;;;10.10;99.90;;;;;;5091836;28;20968;-67
2021/05/01 08:30:43;;;;;;;55.67;2.10;;;10.00;99.90;;;;;;5091978;28;20477;-67
2021/05/01 08:33:10;;;;;;;55.80;2.00;;;10.00;99.90;;;;;;5091892;28;20904;-67
2021/05/01 08:35:37;;;;;;;55.70;2.17;;;9.90;99.90;;;;;;5091534;28;20520;-67
2021/05/01 08:38:03;;;;;;;55.70;2.30;;;9.80;99.90;;;;;;5091781;28;20448;-67
2021/05/01 08:40:32;;;;;;;55.80;2.07;;;9.70;99.90;;;;;;5091606;28;20590;-67
2021/05/01 08:42:58;;;;;;;55.90;2.73;;;9.60;99.90;;;;;;5091535;28;20453;-66
2021/05/01 08:45:27;;;;;;;55.73;2.20;;;9.70;99.90;;;;;;5091540;28;20563;-67
2021/05/01 08:47:54;;;;;;;55.57;2.20;;;9.70;99.90;;;;;;5091888;28;20819;-66
2021/05/01 08:50:47;;;;;;;55.50;2.20;;;9.80;99.90;;;;;;5091564;28;20556;-66
2021/05/01 08:53:13;;;;;;;55.60;2.20;;;9.90;99.90;;;;;;5076927;28;20534;-67
2021/05/01 08:55:40;;;;;;;55.63;2.20;;;10.00;99.90;;;;;;5091645;28;20480;-67
2021/05/01 08:58:08;;;;;;;55.67;2.20;;;10.20;99.90;;;;;;5091802;28;20521;-67
2021/05/01 09:00:36;;;;;;;55.57;2.10;;;10.30;99.90;;;;;;5091504;28;20551;-67
2021/05/01 09:03:05;;;;;;;56.30;2.93;;;10.30;99.90;;;;;;5091303;28;20438;-67
2021/05/01 09:05:32;;;;;;;55.37;2.00;;;10.40;99.90;;;;;;5091177;28;20908;-67
2021/05/01 09:07:59;;;;;;;55.57;2.10;;;10.50;99.90;;;;;;5091625;28;20810;-67
2021/05/01 09:10:27;;;;;;;55.57;1.97;;;10.60;99.90;;;;;;5091569;28;20466;-67
2021/05/01 09:12:54;;;;;;;55.57;2.20;;;10.70;99.90;;;;;;5091368;28;20874;-67
2021/05/01 09:15:22;;;;;;;55.60;2.10;;;10.70;99.90;;;;;;5091401;28;20782;-67
2021/05/01 09:17:58;;;;;;;55.80;2.27;;;10.70;99.90;;;;;;5091268;28;20500;-67
2021/05/01 09:20:25;;;;;;;55.43;2.07;;;10.80;99.90;;;;;;5091674;28;20462;-67
2021/05/01 09:22:57;;;;;;;55.70;2.20;;;11.00;99.90;;;;;;5091651;28;20477;-67
2021/05/01 09:25:25;;;;;;;55.43;2.03;;;11.10;99.90;;;;;;5091649;28;20881;-67
2021/05/01 09:28:03;;;;;;;55.83;2.30;;;11.20;99.90;;;;;;5092521;28;20450;-67
2021/05/01 09:30:30;;;;;;;55.53;2.00;;;11.30;99.90;;;;;;5095122;28;20904;-67
2021/05/01 09:33:23;;;;;;;55.87;2.00;;;11.30;99.90;;;;;;5095050;28;20499;-67
2021/05/01 09:35:54;;;;;;;55.80;2.20;;;11.40;99.90;;;;;;5095058;28;20821;-67
2021/05/01 09:38:21;;;;;;;55.70;2.20;;;11.40;99.90;;;;;;5095046;28;20506;-67
2021/05/01 09:40:49;;;;;;;56.40;3.20;;;11.50;99.90;;;;;;5094961;28;20543;-67
2021/05/01 09:43:17;;;;;;;55.60;2.03;;;11.60;99.90;;;;;;5094844;28;20793;-67
2021/05/01 09:45:43;;;;;;;55.63;2.20;;;11.80;99.90;;;;;;5094570;28;20835;-67
2021/05/01 09:48:15;;;;;;;55.97;2.13;;;12.00;99.90;;;;;;5094791;28;20532;-68
2021/05/01 09:50:41;;;;;;;55.43;2.43;;;12.10;99.90;;;;;;5094846;28;20473;-67
2021/05/01 09:53:11;;;;;;;55.67;1.97;;;12.10;99.90;;;;;;5094627;28;20446;-67
2021/05/01 09:55:49;;;;;;;55.70;1.90;;;12.10;99.90;;;;;;5094732;28;20450;-67
2021/05/01 09:58:17;;;;;;;55.77;1.97;;;12.10;99.90;;;;;;5094861;28;20570;-67
2021/05/01 10:00:44;;;;;;;55.70;2.83;;;12.30;99.90;;;;;;5094577;28;20468;-67
2021/05/01 10:03:22;;;;;;;55.63;2.00;;;12.40;99.90;;;;;;5094232;28;20533;-67
2021/05/01 10:05:51;;;;;;;55.77;2.30;;;12.50;99.90;;;;;;5094049;28;20503;-67
2021/05/01 10:08:19;;;;;;;55.63;2.33;;;12.70;99.90;;;;;;5094544;28;20473;-67
2021/05/01 10:10:46;;;;;;;55.77;2.33;;;12.90;99.90;;;;;;5094739;28;20473;-67
2021/05/01 10:13:15;;;;;;;55.70;2.07;;;13.10;99.90;;;;;;5094137;28;20455;-67
2021/05/01 10:15:43;;;;;;;55.70;2.10;;;13.10;98.50;;;;;;5094166;28;20446;-67
2021/05/01 10:18:11;;;;;;;55.37;2.00;;;13.10;94.60;;;;;;5094156;28;20489;-66
2021/05/01 10:20:43;;;;;;;55.87;2.50;;;13.20;95.40;;;;;;5094329;28;20462;-66
2021/05/01 10:23:11;;;;;;;55.53;2.00;;;13.30;95.60;;;;;;5093955;28;20458;-67
2021/05/01 10:25:37;;;;;;;55.57;2.00;;;13.40;94.60;;;;;;5094011;28;20547;-67
2021/05/01 10:28:06;;;;;;;55.80;2.40;;;13.40;92.60;;;;;;5094015;28;20449;-67
2021/05/01 10:30:36;;;;;;;55.77;2.10;;;13.40;86.30;;;;;;5093796;28;20561;-67
2021/05/01 10:33:12;;;;;;;55.60;1.90;;;13.40;97.50;;;;;;5093543;28;20438;-67
2021/05/01 10:35:40;;;;;;;56.13;2.93;;;13.30;95.00;;;;;;5093908;28;20446;-67
2021/05/01 10:38:09;;;;;;;55.90;2.20;;;13.10;95.70;;;;;;5093815;28;20446;-67
2021/05/01 10:40:44;;;;;;;55.70;1.90;;;13.00;93.00;;;;;;5092629;28;20471;-67
2021/05/01 10:43:13;;;;;;;55.93;2.07;;;12.70;93.20;;;;;;5093469;28;20481;-66
2021/05/01 10:45:47;;;;;;;56.50;2.40;;;12.50;94.40;;;;;;5093619;28;21012;-67
2021/05/01 10:48:14;;;;;;;55.73;2.10;;;12.20;98.60;;;;;;5093666;28;20986;-66
2021/05/01 10:50:40;;;;;;;55.57;2.20;;;12.30;98.10;;;;;;5093522;28;20486;-66
2021/05/01 10:53:16;;;;;;;55.60;2.40;;;12.40;99.90;;;;;;5093557;28;20442;-67
2021/05/01 10:55:44;;;;;;;55.53;1.90;;;12.50;99.90;;;;;;5093444;28;21026;-67
2021/05/01 10:58:11;;;;;;;55.80;1.90;;;12.50;95.40;;;;;;5093633;28;20442;-67
2021/05/01 11:00:43;;;;;;;55.87;2.10;;;12.60;95.70;;;;;;5093900;28;20879;-66
2021/05/01 11:03:10;;;;;;;55.60;2.20;;;12.60;99.90;;;;;;5093221;28;20962;-66
2021/05/01 11:05:41;;;;;;;55.60;2.10;;;12.40;93.90;;;;;;5093099;28;20528;-66
2021/05/01 11:08:32;;;;;;;55.90;2.00;;;12.30;99.90;;;;;;5093715;28;20446;-66
2021/05/01 11:11:01;;;;;;;56.20;2.40;;;12.20;99.90;;;;;;5091170;28;20550;-66
2021/05/01 11:13:29;;;;;;;55.60;2.00;;;12.20;99.90;;;;;;5093021;28;20549;-67
2021/05/01 11:15:59;;;;;;;55.50;2.10;;;12.10;97.70;;;;;;5093238;28;20442;-66
2021/05/01 11:18:28;;;;;;;55.50;2.00;;;12.00;99.90;;;;;;5093334;28;20477;-67
2021/05/01 11:21:00;;;;;;;55.90;2.60;;;12.00;98.40;;;;;;5092925;28;20994;-66
2021/05/01 11:23:29;;;;;;;55.80;2.23;;;12.00;99.90;;;;;;5092775;28;20454;-66
2021/05/01 11:25:59;;;;;;;56.87;4.47;;;12.00;99.90;;;;;;5092985;28;20485;-66
2021/05/01 11:28:25;;;;;;;56.27;2.50;;;12.00;99.90;;;;;;5092967;28;20454;-66
2021/05/01 11:30:52;;;;;;;55.80;2.30;;;12.00;99.90;;;;;;5092730;28;20944;-66
2021/05/01 11:33:21;;;;;;;55.60;2.30;;;12.00;99.90;;;;;;5092296;28;20450;-67
2021/05/01 11:35:49;;;;;;;55.87;3.00;;;12.00;99.90;;;;;;5092857;28;20526;-66
2021/05/01 11:38:24;;;;;;;55.77;2.10;;;12.10;99.90;;;;;;5092527;28;20529;-66
2021/05/01 11:40:54;;;;;;;55.70;2.57;;;12.00;99.90;;;;;;5092710;28;20472;-66
2021/05/01 11:43:26;;;;;;;55.90;2.00;;;11.90;99.90;;;;;;5092441;28;20461;-66
2021/05/01 11:46:17;;;;;;;55.73;2.20;;;11.80;99.90;;;;;;5092275;28;20481;-66
2021/05/01 11:48:52;;;;;;;55.70;2.27;;;11.80;99.90;;;;;;5092595;28;20863;-66
2021/05/01 11:51:37;;;;;;;55.80;2.10;;;11.80;99.80;;;;;;5092516;28;20934;-66
2021/05/01 11:54:16;;;;;;;55.37;2.03;;;11.70;99.90;;;;;;5091841;28;20449;-66
2021/05/01 11:56:55;;;;;;;55.73;2.47;;;11.70;99.90;;;;;;5092421;28;20462;-66
2021/05/01 11:59:23;;;;;;;55.20;2.00;;;11.70;99.90;;;;;;5092304;28;20470;-65
2021/05/01 12:01:52;;;;;;;55.73;2.40;;;11.80;99.90;;;;;;5092374;28;20528;-66
2021/05/01 12:04:20;;;;;;;55.27;1.90;;;12.00;99.90;;;;;;5092149;28;20507;-65
2021/05/01 12:06:53;;;;;;;55.57;2.10;;;12.10;99.90;;;;;;5091966;28;20561;-66
2021/05/01 12:09:21;;;;;;;56.30;2.87;;;12.40;98.60;;;;;;5092346;28;21008;-66
2021/05/01 12:11:48;;;;;;;55.70;2.40;;;12.50;99.90;;;;;;5092724;28;20457;-66
2021/05/01 12:14:17;;;;;;;55.47;1.87;;;12.70;99.90;;;;;;5092129;28;20542;-66
2021/05/01 12:16:45;;;;;;;55.27;1.87;;;13.00;99.40;;;;;;5092044;28;20844;-66
2021/05/01 12:19:23;;;;;;;56.10;2.30;;;13.40;97.30;;;;;;5092163;28;20451;-66
2021/05/01 12:21:50;;;;;;;55.80;2.00;;;13.90;96.50;;;;;;5091814;28;20450;-65
2021/05/01 12:24:26;;;;;;;55.90;2.10;;;14.30;82.20;;;;;;5092219;28;20465;-66
2021/05/01 12:26:53;;;;;;;55.67;2.00;;;14.30;80.00;;;;;;5091968;28;20922;-66
2021/05/01 12:29:33;;;;;;;55.57;2.00;;;14.30;78.70;;;;;;5091952;28;20508;-66
2021/05/01 12:32:05;;;;;;;55.67;2.20;;;14.30;77.50;;;;;;5091948;28;20537;-66
2021/05/01 12:35:00;;;;;;;55.43;2.07;;;14.20;68.30;;;;;;5091844;28;20540;-65
2021/05/01 12:37:28;;;;;;;55.80;2.60;;;14.20;70.90;;;;;;5056415;28;20459;-65
2021/05/01 12:40:04;;;;;;;56.00;2.60;;;14.00;74.00;;;;;;5091562;28;20519;-66
2021/05/01 12:42:32;;;;;;;55.80;2.40;;;13.80;73.60;;;;;;5091828;28;20442;-65
2021/05/01 12:44:59;;;;;;;55.90;2.10;;;13.60;82.10;;;;;;5091587;28;20541;-66
2021/05/01 12:47:49;;;;;;;55.97;2.47;;;13.50;74.80;;;;;;5091715;28;20956;-65